Time;durP1;ratioP1;P1;durP2;ratioP2;P2;SDS_P1;SDS_P2;PMS_P1;PMS_P2;Temp;Humidity;BMP_temperature;BMP_pressure;BME280_temperature;BME280_humidity;BME280_pressure;Samples;Min_cycle;Max_cycle;Signal;HPM_P1;HPM_P2
2024/01/03 00:01:17;;;;;;;5.83;1.70;;;9.20;99.90;;;;;;5010999;28;20050;-70
2024/01/03 00:03:42;;;;;;;7.37;2.10;;;9.10;99.90;;;;;;5011529;28;20073;-70
2024/01/03 00:06:08;;;;;;;12.73;1.80;;;9.10;99.90;;;;;;4998517;28;20041;-70
2024/01/03 00:08:38;;;;;;;7.63;1.77;;;9.10;99.90;;;;;;5008655;28;20076;-70
2024/01/03 00:11:04;;;;;;;7.23;1.77;;;9.00;99.90;;;;;;5015346;28;20068;-70
2024/01/03 00:13:46;;;;;;;8.40;1.53;;;9.00;99.90;;;;;;5030723;28;20080;-70
2024/01/03 00:16:21;;;;;;;3.73;1.50;;;8.90;99.90;;;;;;4993958;28;20595;-70
2024/01/03 00:18:58;;;;;;;4.47;1.63;;;9.00;99.90;;;;;;5012361;28;20076;-70
2024/01/03 00:21:27;;;;;;;9.83;1.93;;;8.90;99.90;;;;;;5015149;28;20092;-70
2024/01/03 00:23:58;;;;;;;6.80;1.90;;;8.90;99.90;;;;;;5031829;28;20583;-70
2024/01/03 00:26:25;;;;;;;5.83;1.80;;;8.90;99.90;;;;;;5030850;28;21062;-70
2024/01/03 00:28:51;;;;;;;9.70;2.00;;;8.90;99.90;;;;;;5020296;28;20076;-70
2024/01/03 00:31:25;;;;;;;8.40;1.90;;;8.90;99.90;;;;;;5035222;28;20045;-70
2024/01/03 00:33:52;;;;;;;9.37;1.97;;;8.90;99.90;;;;;;5030873;28;20077;-70
2024/01/03 00:36:17;;;;;;;6.90;1.77;;;8.80;99.90;;;;;;5016493;28;20041;-71
2024/01/03 00:38:44;;;;;;;8.27;1.50;;;8.90;99.90;;;;;;5035482;28;20053;-71
2024/01/03 00:41:10;;;;;;;5.87;1.50;;;8.90;99.90;;;;;;5018999;28;20057;-70
2024/01/03 00:43:36;;;;;;;6.07;2.03;;;8.80;99.90;;;;;;4999936;28;20080;-70
2024/01/03 00:46:02;;;;;;;7.80;1.83;;;8.80;99.90;;;;;;5034208;28;20042;-71
2024/01/03 00:48:28;;;;;;;5.83;1.47;;;8.70;99.90;;;;;;5035291;28;20041;-71
2024/01/03 00:50:54;;;;;;;6.40;1.63;;;8.80;99.90;;;;;;5030970;28;20476;-70
2024/01/03 00:53:20;;;;;;;9.47;1.93;;;8.70;99.90;;;;;;5017303;28;20041;-71
2024/01/03 00:55:46;;;;;;;8.87;2.00;;;8.70;99.90;;;;;;5006999;28;20045;-71
2024/01/03 00:58:12;;;;;;;9.33;1.80;;;8.60;99.90;;;;;;5036375;28;20122;-71
2024/01/03 01:00:38;;;;;;;6.03;1.60;;;8.70;99.90;;;;;;5032439;28;20092;-71
2024/01/03 01:03:05;;;;;;;7.70;1.87;;;8.70;99.90;;;;;;5015616;28;20041;-71
2024/01/03 01:05:32;;;;;;;4.63;1.70;;;8.60;99.90;;;;;;5019443;28;20050;-70
2024/01/03 01:07:57;;;;;;;6.33;1.60;;;8.60;99.90;;;;;;5008003;28;20666;-71
2024/01/03 01:10:23;;;;;;;6.57;1.70;;;8.60;99.90;;;;;;5032835;28;20052;-70
2024/01/03 01:12:49;;;;;;;8.50;2.07;;;8.50;99.90;;;;;;5035842;28;20076;-71
2024/01/03 01:15:14;;;;;;;8.47;2.00;;;8.50;99.90;;;;;;5014799;28;20077;-71
2024/01/03 01:17:41;;;;;;;12.33;2.10;;;8.60;99.90;;;;;;5035830;28;20060;-71
2024/01/03 01:20:07;;;;;;;11.33;2.10;;;8.50;99.90;;;;;;5009990;28;20056;-70
2024/01/03 01:22:33;;;;;;;7.50;1.80;;;8.50;99.90;;;;;;5012573;28;20068;-70
2024/01/03 01:24:59;;;;;;;6.70;2.23;;;8.50;99.90;;;;;;5015557;28;20034;-71
2024/01/03 01:27:24;;;;;;;8.30;1.67;;;8.60;99.90;;;;;;5029256;28;20049;-71
2024/01/03 01:29:50;;;;;;;10.53;2.13;;;8.50;99.90;;;;;;5032887;28;20603;-71
2024/01/03 01:32:15;;;;;;;10.07;2.00;;;8.50;99.90;;;;;;5014614;28;20045;-72
2024/01/03 01:34:41;;;;;;;7.87;1.80;;;8.50;99.90;;;;;;5029410;28;20238;-71
2024/01/03 01:37:08;;;;;;;11.00;2.53;;;8.60;99.90;;;;;;5018807;28;20088;-71
2024/01/03 01:39:33;;;;;;;8.57;1.90;;;8.60;99.90;;;;;;5034760;28;20041;-71
2024/01/03 01:41:59;;;;;;;5.17;1.60;;;8.70;99.90;;;;;;5028403;28;20111;-69
2024/01/03 01:44:25;;;;;;;8.47;1.77;;;8.70;99.90;;;;;;4996413;28;20057;-70
2024/01/03 01:46:52;;;;;;;7.30;1.80;;;8.70;99.90;;;;;;5009163;28;20468;-70
2024/01/03 01:49:20;;;;;;;5.40;1.80;;;8.70;99.90;;;;;;5031556;28;20060;-71
2024/01/03 01:51:47;;;;;;;7.63;2.20;;;8.70;99.90;;;;;;5016274;28;20048;-70
2024/01/03 01:54:13;;;;;;;6.80;1.70;;;8.60;99.90;;;;;;5029477;28;20049;-71
2024/01/03 01:56:40;;;;;;;9.23;2.13;;;8.60;99.90;;;;;;5031234;28;20049;-70
2024/01/03 01:59:10;;;;;;;6.00;1.90;;;8.70;99.90;;;;;;5028687;28;20049;-70
2024/01/03 02:01:36;;;;;;;6.27;1.90;;;8.70;99.90;;;;;;5017419;28;20068;-70
2024/01/03 02:04:07;;;;;;;8.10;1.97;;;8.70;99.90;;;;;;5032320;28;20049;-70
2024/01/03 02:06:34;;;;;;;14.20;2.63;;;8.70;99.90;;;;;;5033224;28;20037;-71
2024/01/03 02:09:00;;;;;;;7.93;2.00;;;8.70;99.90;;;;;;5032661;28;20048;-71
2024/01/03 02:11:26;;;;;;;8.17;2.10;;;8.70;99.90;;;;;;5015669;28;20112;-70
2024/01/03 02:13:51;;;;;;;8.20;1.80;;;8.70;99.90;;;;;;5030986;28;20072;-71
2024/01/03 02:16:17;;;;;;;6.80;1.63;;;8.70;99.90;;;;;;5032866;28;20049;-71
2024/01/03 02:18:44;;;;;;;13.43;1.80;;;8.80;99.90;;;;;;5030585;28;20053;-71
2024/01/03 02:21:14;;;;;;;8.80;1.90;;;8.90;99.90;;;;;;5029596;28;20106;-71
2024/01/03 02:23:39;;;;;;;9.93;2.10;;;8.80;99.90;;;;;;5031895;28;20254;-70
2024/01/03 02:26:05;;;;;;;9.07;2.00;;;8.70;99.90;;;;;;5003857;28;20049;-71
2024/01/03 02:28:31;;;;;;;6.07;1.73;;;8.80;99.90;;;;;;5001177;28;20037;-71
2024/01/03 02:30:56;;;;;;;6.77;1.60;;;8.80;99.90;;;;;;5016192;28;20105;-71
2024/01/03 02:33:22;;;;;;;8.53;1.63;;;8.90;99.90;;;;;;5028382;28;20041;-72
2024/01/03 02:35:48;;;;;;;6.53;1.97;;;8.80;99.90;;;;;;5014400;28;20051;-71
2024/01/03 02:38:13;;;;;;;5.97;1.70;;;8.80;99.90;;;;;;5027589;28;20041;-71
2024/01/03 02:40:39;;;;;;;4.43;1.70;;;8.90;99.90;;;;;;5012120;28;20046;-71
2024/01/03 02:43:05;;;;;;;5.07;1.53;;;9.00;99.90;;;;;;5032965;28;20090;-72
2024/01/03 02:45:30;;;;;;;3.73;1.27;;;9.00;99.90;;;;;;5028218;28;20096;-71
2024/01/03 02:47:56;;;;;;;3.03;1.10;;;9.10;99.90;;;;;;5007596;28;20115;-71
2024/01/03 02:50:22;;;;;;;3.37;1.23;;;9.10;99.90;;;;;;5029797;28;20064;-71
2024/01/03 02:52:47;;;;;;;5.10;1.33;;;9.20;99.90;;;;;;5016184;28;20052;-71
2024/01/03 02:55:13;;;;;;;4.30;1.10;;;9.20;99.90;;;;;;5006415;28;20084;-71
2024/01/03 02:57:41;;;;;;;6.97;1.20;;;9.20;99.90;;;;;;5034297;28;20060;-71
2024/01/03 03:00:10;;;;;;;3.97;1.10;;;9.20;99.90;;;;;;5010167;28;20119;-71
2024/01/03 03:02:36;;;;;;;3.10;1.10;;;9.20;99.90;;;;;;5005572;28;20042;-71
2024/01/03 03:05:01;;;;;;;6.37;1.37;;;9.20;99.90;;;;;;5034650;28;20105;-69
2024/01/03 03:07:27;;;;;;;4.10;1.27;;;9.30;99.90;;;;;;5032040;28;20085;-70
2024/01/03 03:09:53;;;;;;;6.03;1.40;;;9.30;99.90;;;;;;5029755;28;20364;-71
2024/01/03 03:12:18;;;;;;;4.27;1.30;;;9.20;99.90;;;;;;4997348;28;20101;-71
2024/01/03 03:14:44;;;;;;;4.47;1.20;;;9.20;99.90;;;;;;5009914;28;20045;-71
2024/01/03 03:17:10;;;;;;;5.00;1.20;;;9.10;99.90;;;;;;5008672;28;20053;-70
2024/01/03 03:19:36;;;;;;;3.23;1.30;;;9.00;99.90;;;;;;5025320;28;20038;-71
2024/01/03 03:22:01;;;;;;;4.43;1.10;;;9.00;99.90;;;;;;5009029;28;20065;-71
2024/01/03 03:24:27;;;;;;;3.07;1.00;;;9.00;99.90;;;;;;4991421;28;20065;-71
2024/01/03 03:26:54;;;;;;;4.50;1.33;;;8.90;99.90;;;;;;5012749;28;20046;-71
2024/01/03 03:29:20;;;;;;;2.60;0.97;;;9.00;99.90;;;;;;5008959;28;20623;-70
2024/01/03 03:31:46;;;;;;;4.43;1.20;;;9.00;99.90;;;;;;5028765;28;20049;-71
2024/01/03 03:34:12;;;;;;;3.10;0.90;;;9.00;99.90;;;;;;5003540;28;20046;-71
2024/01/03 03:36:37;;;;;;;3.53;0.90;;;8.90;99.90;;;;;;5012612;28;20104;-71
2024/01/03 03:39:07;;;;;;;2.80;0.80;;;8.90;99.90;;;;;;5013130;28;20042;-71
2024/01/03 03:41:33;;;;;;;5.33;1.07;;;8.90;99.90;;;;;;5010460;28;20064;-71
2024/01/03 03:43:59;;;;;;;3.27;0.97;;;8.80;99.90;;;;;;5012735;28;20097;-75
2024/01/03 03:46:24;;;;;;;2.00;0.70;;;8.80;99.90;;;;;;5012058;28;20081;-71
2024/01/03 03:48:50;;;;;;;2.77;0.70;;;8.80;99.90;;;;;;5009738;28;20049;-70
2024/01/03 03:51:16;;;;;;;1.23;0.80;;;8.70;99.90;;;;;;5007570;28;20144;-71
2024/01/03 03:53:41;;;;;;;1.87;0.60;;;8.70;99.90;;;;;;5017568;28;20052;-71
2024/01/03 03:56:07;;;;;;;2.00;0.70;;;8.60;99.90;;;;;;5017069;28;20045;-71
2024/01/03 03:58:33;;;;;;;1.77;0.73;;;8.60;99.90;;;;;;5013260;28;20444;-70
2024/01/03 04:00:59;;;;;;;2.73;0.80;;;8.50;99.90;;;;;;5014810;28;20046;-71
2024/01/03 04:03:24;;;;;;;1.40;0.70;;;8.50;99.90;;;;;;5008217;28;20046;-71
2024/01/03 04:05:50;;;;;;;3.83;0.80;;;8.50;99.90;;;;;;5014410;28;20046;-71
2024/01/03 04:08:16;;;;;;;1.67;0.60;;;8.40;99.90;;;;;;5016812;28;20078;-71
2024/01/03 04:10:42;;;;;;;1.70;0.57;;;8.40;99.90;;;;;;5009459;28;20101;-72
2024/01/03 04:13:07;;;;;;;1.90;0.50;;;8.40;99.90;;;;;;5016186;28;20060;-71
2024/01/03 04:15:34;;;;;;;2.40;0.60;;;8.40;99.90;;;;;;5017859;28;20137;-71
2024/01/03 04:18:02;;;;;;;0.40;0.40;;;8.50;99.90;;;;;;5012813;28;20054;-71
2024/01/03 04:20:28;;;;;;;1.00;0.70;;;8.50;99.90;;;;;;5008451;28;20521;-70
2024/01/03 04:22:53;;;;;;;3.20;0.93;;;8.50;99.90;;;;;;5032287;28;20053;-71
2024/01/03 04:25:19;;;;;;;1.30;0.67;;;8.60;99.90;;;;;;5037422;28;20057;-71
2024/01/03 04:27:45;;;;;;;2.37;0.70;;;8.50;99.90;;;;;;5037945;28;20084;-71
2024/01/03 04:30:11;;;;;;;6.30;1.80;;;8.50;99.90;;;;;;5034055;28;20045;-71
2024/01/03 04:32:36;;;;;;;4.33;1.57;;;8.60;99.90;;;;;;5038367;28;20297;-71
2024/01/03 04:35:02;;;;;;;13.40;3.20;;;8.60;99.90;;;;;;5033509;28;20117;-71
2024/01/03 04:37:28;;;;;;;14.47;3.00;;;8.70;99.90;;;;;;5031362;28;20049;-71
2024/01/03 04:39:54;;;;;;;13.90;3.50;;;8.70;99.90;;;;;;5037079;28;20037;-70
2024/01/03 04:42:19;;;;;;;19.80;4.20;;;8.80;99.90;;;;;;5035514;28;20503;-71
2024/01/03 04:44:45;;;;;;;16.77;4.40;;;8.90;99.90;;;;;;5017207;28;20126;-71
2024/01/03 04:47:11;;;;;;;17.20;4.07;;;8.90;99.90;;;;;;5035028;28;20042;-71
2024/01/03 04:49:36;;;;;;;19.83;4.80;;;8.90;99.90;;;;;;5013936;28;20061;-71
2024/01/03 04:52:02;;;;;;;24.60;4.47;;;8.90;99.90;;;;;;5034281;28;20044;-71
2024/01/03 04:54:29;;;;;;;21.27;4.57;;;8.90;99.90;;;;;;5033002;28;20450;-70
2024/01/03 04:56:55;;;;;;;20.63;4.50;;;9.00;99.90;;;;;;5016373;28;20103;-70
2024/01/03 04:59:20;;;;;;;22.33;4.37;;;9.00;99.90;;;;;;5030259;28;20045;-71
2024/01/03 05:01:46;;;;;;;17.80;4.17;;;9.10;99.90;;;;;;5030298;28;20099;-71
2024/01/03 05:04:12;;;;;;;20.77;5.17;;;9.10;99.90;;;;;;5033221;28;20041;-71
2024/01/03 05:06:38;;;;;;;19.20;4.47;;;9.10;99.90;;;;;;5013711;28;20061;-70
2024/01/03 05:09:04;;;;;;;26.57;4.60;;;9.20;99.90;;;;;;5012223;28;20084;-71
2024/01/03 05:11:30;;;;;;;23.17;4.33;;;9.20;99.90;;;;;;5029877;28;20129;-71
2024/01/03 05:13:56;;;;;;;24.97;4.87;;;9.10;99.90;;;;;;5027914;28;20050;-71
2024/01/03 05:16:22;;;;;;;23.80;4.83;;;9.20;99.90;;;;;;5030763;28;20049;-71
2024/01/03 05:18:48;;;;;;;18.60;4.50;;;9.20;99.90;;;;;;5031439;28;20053;-71
2024/01/03 05:21:14;;;;;;;22.57;5.10;;;9.20;99.90;;;;;;5018980;28;20038;-71
2024/01/03 05:23:40;;;;;;;19.77;4.40;;;9.20;99.90;;;;;;5035382;28;20439;-71
2024/01/03 05:26:05;;;;;;;29.00;5.30;;;9.30;99.90;;;;;;5032489;28;20053;-71
2024/01/03 05:28:32;;;;;;;25.83;4.50;;;9.20;99.90;;;;;;5015451;28;20578;-71
2024/01/03 05:30:58;;;;;;;22.67;4.30;;;9.30;99.90;;;;;;5029712;28;20034;-70
2024/01/03 05:33:25;;;;;;;23.00;5.00;;;9.30;99.90;;;;;;5016430;28;20124;-70
2024/01/03 05:35:51;;;;;;;17.97;3.97;;;9.30;99.90;;;;;;5034787;28;20123;-70
2024/01/03 05:38:17;;;;;;;17.67;4.30;;;9.30;99.90;;;;;;5014561;28;20401;-71
2024/01/03 05:40:43;;;;;;;16.80;4.33;;;9.30;99.90;;;;;;5036545;28;20052;-70
2024/01/03 05:43:11;;;;;;;13.73;3.77;;;9.40;99.90;;;;;;5035858;28;20398;-69
2024/01/03 05:45:36;;;;;;;20.13;3.57;;;9.40;99.90;;;;;;5033981;28;20045;-70
2024/01/03 05:48:02;;;;;;;24.77;4.17;;;9.50;99.90;;;;;;5033075;28;20052;-71
2024/01/03 05:50:28;;;;;;;14.87;3.23;;;9.50;99.90;;;;;;5012416;28;20061;-71
2024/01/03 05:52:54;;;;;;;14.77;3.67;;;9.50;99.90;;;;;;5030946;28;20052;-70
2024/01/03 05:55:19;;;;;;;18.27;4.47;;;9.50;99.90;;;;;;5028809;28;20068;-70
2024/01/03 05:57:45;;;;;;;14.77;3.80;;;9.50;99.90;;;;;;5033627;28;20049;-70
2024/01/03 06:00:12;;;;;;;17.17;4.13;;;9.50;99.90;;;;;;5029437;28;20053;-71
2024/01/03 06:02:37;;;;;;;20.97;4.30;;;9.50;99.90;;;;;;5031467;28;20646;-70
2024/01/03 06:05:03;;;;;;;16.50;3.80;;;9.40;99.90;;;;;;5033315;28;20041;-71
2024/01/03 06:07:29;;;;;;;17.03;4.27;;;9.50;99.90;;;;;;5031018;28;20038;-71
2024/01/03 06:09:55;;;;;;;19.53;4.17;;;9.50;99.90;;;;;;5034645;28;20516;-71
2024/01/03 06:12:21;;;;;;;18.53;4.17;;;9.40;99.90;;;;;;5013703;28;20041;-70
2024/01/03 06:14:47;;;;;;;13.57;3.60;;;9.40;99.90;;;;;;5034522;28;20111;-70
2024/01/03 06:17:12;;;;;;;15.33;3.77;;;9.40;99.90;;;;;;5026866;28;20041;-71
2024/01/03 06:19:38;;;;;;;15.10;3.37;;;9.30;99.90;;;;;;5029823;28;20052;-70
2024/01/03 06:22:04;;;;;;;18.23;3.93;;;9.30;99.90;;;;;;5036465;28;20057;-71
2024/01/03 06:24:29;;;;;;;17.17;4.10;;;9.40;99.90;;;;;;5030746;28;20041;-71
2024/01/03 06:26:55;;;;;;;19.77;4.03;;;9.40;99.90;;;;;;5029047;28;20061;-70
2024/01/03 06:29:21;;;;;;;17.40;4.00;;;9.30;99.90;;;;;;5026943;28;20372;-69
2024/01/03 06:31:46;;;;;;;17.07;4.03;;;9.20;99.90;;;;;;5014054;28;20076;-71
2024/01/03 06:34:12;;;;;;;16.70;3.67;;;9.20;99.90;;;;;;5034678;28;20558;-70
2024/01/03 06:36:38;;;;;;;14.53;3.63;;;9.20;99.90;;;;;;5029867;28;20052;-70
2024/01/03 06:39:03;;;;;;;18.07;3.53;;;9.20;99.90;;;;;;5031533;28;20042;-69
2024/01/03 06:41:29;;;;;;;15.90;3.90;;;9.20;99.90;;;;;;5029829;28;20042;-70
2024/01/03 06:43:55;;;;;;;9.67;2.43;;;9.20;99.90;;;;;;5036579;28;20100;-70
2024/01/03 06:46:24;;;;;;;10.97;2.43;;;9.20;99.90;;;;;;5032079;28;20049;-71
2024/01/03 06:48:49;;;;;;;10.27;2.40;;;9.20;99.90;;;;;;5025460;28;20045;-70
2024/01/03 06:51:20;;;;;;;9.00;1.90;;;9.20;99.90;;;;;;5032539;28;20033;-70
2024/01/03 06:53:46;;;;;;;8.10;1.63;;;9.20;99.90;;;;;;5032122;28;20598;-70
2024/01/03 06:56:11;;;;;;;7.97;2.23;;;9.20;99.90;;;;;;5032443;28;20037;-71
2024/01/03 06:58:37;;;;;;;11.30;2.33;;;9.20;99.90;;;;;;5027645;28;20563;-70
2024/01/03 07:01:03;;;;;;;9.90;2.47;;;9.20;99.90;;;;;;5030623;28;20044;-70
2024/01/03 07:03:28;;;;;;;10.00;2.57;;;9.20;99.90;;;;;;5029608;28;20045;-71
2024/01/03 07:05:54;;;;;;;12.10;2.60;;;9.20;99.90;;;;;;5026984;28;20041;-70
2024/01/03 07:08:20;;;;;;;13.00;3.63;;;9.20;99.90;;;;;;5014338;28;20055;-70
2024/01/03 07:10:45;;;;;;;16.43;3.53;;;9.10;99.90;;;;;;5029262;28;20046;-70
2024/01/03 07:13:11;;;;;;;20.00;3.83;;;9.10;99.90;;;;;;5029739;28;20076;-70
2024/01/03 07:15:37;;;;;;;17.60;3.47;;;9.10;99.90;;;;;;5014011;28;20825;-71
2024/01/03 07:18:03;;;;;;;19.63;3.47;;;9.10;99.90;;;;;;5033081;28;20050;-71
2024/01/03 07:20:30;;;;;;;17.00;3.43;;;9.20;99.90;;;;;;4997513;28;20046;-73
2024/01/03 07:22:56;;;;;;;15.17;3.10;;;9.20;99.90;;;;;;5012865;28;20049;-72
2024/01/03 07:25:21;;;;;;;13.47;2.77;;;9.20;99.90;;;;;;5026702;28;20517;-75
2024/01/03 07:27:47;;;;;;;19.10;3.67;;;9.10;99.90;;;;;;5024952;28;20057;-71
2024/01/03 07:30:13;;;;;;;18.57;3.63;;;9.00;99.90;;;;;;5049956;28;20045;-71
2024/01/03 07:32:39;;;;;;;15.57;3.67;;;9.10;99.90;;;;;;5024379;28;20108;-72
2024/01/03 07:35:06;;;;;;;14.70;3.20;;;9.00;99.90;;;;;;5031336;28;20041;-71
2024/01/03 07:37:33;;;;;;;17.73;3.70;;;9.00;99.90;;;;;;5032759;28;20112;-71
2024/01/03 07:39:58;;;;;;;19.53;4.53;;;9.00;99.90;;;;;;5020929;28;20053;-70
2024/01/03 07:42:24;;;;;;;18.67;3.93;;;9.00;99.90;;;;;;5035093;28;20048;-72
2024/01/03 07:44:50;;;;;;;17.67;3.80;;;9.00;99.90;;;;;;5019455;28;20030;-71
2024/01/03 07:47:15;;;;;;;16.20;3.67;;;9.00;99.90;;;;;;5034758;28;20816;-71
2024/01/03 07:49:42;;;;;;;17.13;3.70;;;9.00;99.90;;;;;;5043149;28;20076;-72
2024/01/03 07:52:08;;;;;;;16.13;3.30;;;9.00;99.90;;;;;;5026044;28;20069;-71
2024/01/03 07:54:34;;;;;;;16.37;2.97;;;9.10;99.90;;;;;;4997642;28;20245;-77
2024/01/03 07:57:02;;;;;;;13.40;3.37;;;9.10;99.90;;;;;;5015247;28;20054;-71
2024/01/03 07:59:28;;;;;;;17.77;2.63;;;9.10;99.90;;;;;;5001340;28;20133;-71
2024/01/03 08:01:54;;;;;;;6.00;1.57;;;9.10;99.90;;;;;;5017609;28;20076;-71
2024/01/03 08:04:19;;;;;;;6.80;1.40;;;9.10;99.90;;;;;;5020585;28;20036;-73
2024/01/03 08:06:45;;;;;;;5.93;1.40;;;9.00;99.90;;;;;;5039531;28;20041;-72
2024/01/03 08:09:11;;;;;;;7.90;1.77;;;8.90;99.90;;;;;;5034033;28;20055;-72
2024/01/03 08:11:37;;;;;;;7.47;1.70;;;8.90;99.90;;;;;;5046216;28;20049;-72
2024/01/03 08:14:03;;;;;;;8.03;2.10;;;8.90;99.90;;;;;;5023767;28;20045;-73
2024/01/03 08:16:29;;;;;;;11.87;2.30;;;8.80;99.90;;;;;;5022438;28;20097;-73
2024/01/03 08:18:54;;;;;;;10.87;2.30;;;8.80;99.90;;;;;;5040744;28;20040;-72
2024/01/03 08:21:20;;;;;;;13.03;3.17;;;8.80;99.90;;;;;;5012030;28;20720;-73
2024/01/03 08:23:46;;;;;;;9.70;2.90;;;8.70;99.90;;;;;;5041122;28;20089;-73
2024/01/03 08:26:12;;;;;;;12.00;2.90;;;8.70;99.90;;;;;;5047106;28;20058;-73
2024/01/03 08:28:40;;;;;;;18.10;3.20;;;8.70;99.90;;;;;;5041000;28;20067;-73
2024/01/03 08:31:15;;;;;;;11.03;3.00;;;8.80;99.90;;;;;;5041441;28;20465;-73
2024/01/03 08:33:40;;;;;;;16.30;3.13;;;8.70;99.90;;;;;;5045976;28;20053;-73
2024/01/03 08:36:11;;;;;;;11.93;3.80;;;8.70;99.90;;;;;;5043886;28;20104;-72
2024/01/03 08:38:37;;;;;;;14.20;3.07;;;8.70;99.90;;;;;;5046435;28;20040;-73
2024/01/03 08:41:02;;;;;;;9.97;2.67;;;8.70;99.90;;;;;;5035177;28;20085;-73
2024/01/03 08:43:28;;;;;;;12.37;3.17;;;8.80;99.90;;;;;;5045533;28;20123;-73
2024/01/03 08:45:54;;;;;;;12.03;3.07;;;8.80;99.90;;;;;;5044321;28;20063;-73
2024/01/03 08:48:19;;;;;;;15.60;3.30;;;8.70;99.90;;;;;;5021143;28;20132;-74
2024/01/03 08:50:45;;;;;;;13.40;2.90;;;8.80;99.90;;;;;;5036797;28;20055;-72
2024/01/03 08:53:11;;;;;;;11.27;2.80;;;8.70;99.90;;;;;;5040129;28;20120;-73
2024/01/03 08:55:37;;;;;;;13.67;2.70;;;8.70;99.90;;;;;;5044058;28;20057;-73
2024/01/03 08:58:03;;;;;;;12.33;2.87;;;8.70;99.90;;;;;;5016093;28;20053;-73
2024/01/03 09:00:28;;;;;;;12.53;2.63;;;8.90;99.90;;;;;;5034209;28;20076;-72
2024/01/03 09:03:00;;;;;;;14.40;2.57;;;8.90;99.90;;;;;;5017453;28;20088;-72
2024/01/03 09:05:26;;;;;;;13.38;2.88;;;9.00;99.90;;;;;;5037613;28;20064;-73
2024/01/03 09:07:52;;;;;;;12.60;2.87;;;8.90;99.90;;;;;;5020656;28;20060;-73
2024/01/03 09:10:17;;;;;;;10.87;2.67;;;9.00;99.90;;;;;;5044748;28;20045;-73
2024/01/03 09:12:43;;;;;;;13.97;2.67;;;9.00;99.90;;;;;;5043564;28;20055;-73
2024/01/03 09:15:09;;;;;;;14.10;3.00;;;9.10;99.90;;;;;;5039400;28;20124;-73
2024/01/03 09:17:35;;;;;;;10.57;2.80;;;9.10;99.90;;;;;;5038774;28;20109;-73
2024/01/03 09:20:00;;;;;;;10.13;2.83;;;9.10;99.90;;;;;;5044503;28;20067;-73
2024/01/03 09:22:26;;;;;;;10.53;2.57;;;9.20;99.90;;;;;;5048702;28;20064;-72
2024/01/03 09:24:52;;;;;;;10.43;2.50;;;9.20;99.90;;;;;;5031831;28;20053;-73
2024/01/03 09:27:18;;;;;;;14.43;2.83;;;9.20;99.90;;;;;;5018445;28;20045;-73
2024/01/03 09:29:43;;;;;;;10.37;2.40;;;9.30;99.90;;;;;;5015669;28;20431;-72
2024/01/03 09:32:09;;;;;;;16.63;2.87;;;9.30;99.90;;;;;;5032932;28;20076;-73
2024/01/03 09:34:41;;;;;;;10.33;2.43;;;9.30;99.90;;;;;;5036816;28;20080;-73
2024/01/03 09:37:07;;;;;;;9.55;2.35;;;9.30;99.90;;;;;;5014910;28;20065;-73
2024/01/03 09:39:33;;;;;;;10.73;2.63;;;9.40;99.90;;;;;;5045511;28;20345;-72
2024/01/03 09:42:00;;;;;;;12.07;2.53;;;9.40;99.90;;;;;;5027232;28;20033;-73
2024/01/03 09:44:27;;;;;;;14.93;3.20;;;9.50;99.90;;;;;;5028585;28;20080;-73
2024/01/03 09:46:52;;;;;;;12.07;2.60;;;9.50;99.90;;;;;;5046209;28;20108;-72
2024/01/03 09:49:18;;;;;;;8.33;2.63;;;9.40;99.90;;;;;;5040678;28;20077;-73
2024/01/03 09:51:50;;;;;;;6.53;2.00;;;9.50;99.90;;;;;;5036538;28;20092;-73
2024/01/03 09:54:16;;;;;;;13.10;2.50;;;9.50;99.90;;;;;;5029093;28;20096;-73
2024/01/03 09:56:42;;;;;;;9.53;2.40;;;9.50;99.90;;;;;;5016976;28;20103;-72
2024/01/03 09:59:08;;;;;;;10.00;2.43;;;9.50;99.90;;;;;;5044696;28;20076;-73
2024/01/03 10:01:34;;;;;;;9.10;2.30;;;9.60;99.90;;;;;;5037624;28;20041;-72
2024/01/03 10:04:00;;;;;;;9.73;2.40;;;9.70;99.90;;;;;;5047149;28;20049;-73
2024/01/03 10:06:26;;;;;;;9.93;2.93;;;9.60;99.90;;;;;;5038907;28;20124;-73
2024/01/03 10:09:02;;;;;;;9.00;2.27;;;9.60;99.90;;;;;;5044739;28;20057;-73
2024/01/03 10:11:28;;;;;;;8.90;2.53;;;9.70;99.90;;;;;;5037380;28;20052;-73
2024/01/03 10:13:55;;;;;;;9.13;3.00;;;9.60;99.90;;;;;;5032066;28;20202;-73
2024/01/03 10:16:23;;;;;;;8.50;2.33;;;9.60;99.90;;;;;;5035130;28;20171;-73
2024/01/03 10:19:06;;;;;;;7.60;2.20;;;9.60;99.90;;;;;;5042950;28;20136;-74
2024/01/03 10:21:32;;;;;;;10.67;2.37;;;9.60;99.90;;;;;;5029386;28;20548;-73
2024/01/03 10:24:03;;;;;;;13.07;2.80;;;9.60;99.90;;;;;;5042213;28;20048;-74
2024/01/03 10:26:29;;;;;;;7.40;2.00;;;9.70;99.90;;;;;;5038856;28;20075;-73
2024/01/03 10:29:24;;;;;;;12.60;3.13;;;9.70;99.90;;;;;;5040782;28;20084;-74
2024/01/03 10:31:50;;;;;;;7.13;1.90;;;9.70;99.90;;;;;;5022898;28;20048;-74
2024/01/03 10:34:23;;;;;;;7.63;1.80;;;9.80;99.90;;;;;;5042233;28;20148;-73
2024/01/03 10:36:52;;;;;;;7.93;2.23;;;9.90;99.90;;;;;;5032578;28;20044;-80
2024/01/03 10:39:19;;;;;;;7.73;2.20;;;9.90;99.90;;;;;;5016281;28;20049;-72
2024/01/03 10:41:50;;;;;;;5.90;1.60;;;9.90;99.90;;;;;;5025273;28;20461;-74
2024/01/03 10:44:17;;;;;;;9.20;1.83;;;10.00;99.90;;;;;;5045243;28;20049;-75
2024/01/03 10:46:44;;;;;;;7.07;2.00;;;10.00;99.90;;;;;;5036591;28;20094;-72
2024/01/03 10:49:10;;;;;;;5.50;1.80;;;9.90;99.90;;;;;;5043944;28;20523;-72
2024/01/03 10:51:43;;;;;;;7.63;1.93;;;10.00;99.90;;;;;;5034608;28;20048;-72
2024/01/03 10:54:12;;;;;;;9.00;2.30;;;10.00;99.90;;;;;;5028820;28;20038;-72
2024/01/03 10:56:38;;;;;;;8.70;2.10;;;10.00;99.90;;;;;;5045181;28;20061;-72
2024/01/03 10:59:05;;;;;;;10.87;2.50;;;10.10;99.90;;;;;;5039302;28;20048;-72
2024/01/03 11:01:45;;;;;;;10.93;2.67;;;10.10;99.90;;;;;;5036234;28;20115;-72
2024/01/03 11:04:31;;;;;;;10.50;2.83;;;10.00;99.90;;;;;;5029092;28;20041;-72
2024/01/03 11:07:19;;;;;;;11.67;3.10;;;10.10;99.90;;;;;;5017935;28;20037;-72
2024/01/03 11:09:45;;;;;;;12.73;3.23;;;10.00;99.90;;;;;;5044886;28;20045;-73
2024/01/03 11:12:15;;;;;;;13.77;3.40;;;10.00;99.90;;;;;;5045374;28;20050;-72
2024/01/03 11:14:41;;;;;;;9.10;3.17;;;9.90;99.90;;;;;;5040877;28;20048;-72
2024/01/03 11:17:10;;;;;;;14.60;3.13;;;10.00;99.90;;;;;;5035168;28;20071;-72
2024/01/03 11:19:38;;;;;;;15.17;3.13;;;9.90;99.90;;;;;;5042152;28;20037;-72
2024/01/03 11:22:04;;;;;;;17.17;3.30;;;9.90;99.90;;;;;;5049583;28;20053;-72
2024/01/03 11:24:33;;;;;;;13.80;3.57;;;9.90;99.90;;;;;;5040575;28;20037;-73
2024/01/03 11:27:03;;;;;;;13.03;3.33;;;10.00;99.90;;;;;;5025323;28;20053;-72
2024/01/03 11:29:35;;;;;;;10.70;3.10;;;10.10;99.90;;;;;;5045826;28;20045;-73
2024/01/03 11:32:04;;;;;;;11.73;2.80;;;10.10;99.90;;;;;;5040558;28;20045;-73
2024/01/03 11:34:37;;;;;;;14.17;3.13;;;10.20;99.90;;;;;;5041596;28;20037;-73
2024/01/03 11:37:24;;;;;;;11.97;3.10;;;10.20;99.90;;;;;;5030674;28;20124;-72
2024/01/03 11:39:52;;;;;;;12.60;3.13;;;10.30;99.90;;;;;;5010799;28;20052;-73
2024/01/03 11:42:41;;;;;;;20.10;3.50;;;10.30;99.90;;;;;;5030168;28;20045;-73
2024/01/03 11:45:15;;;;;;;16.83;3.33;;;10.30;99.90;;;;;;5033210;28;20060;-73
2024/01/03 11:47:49;;;;;;;13.93;3.63;;;10.30;99.90;;;;;;5018033;28;20048;-73
2024/01/03 11:50:16;;;;;;;14.50;3.20;;;10.40;99.90;;;;;;5021923;28;20080;-73
2024/01/03 11:52:45;;;;;;;15.50;3.50;;;10.40;99.90;;;;;;5032980;28;20061;-73
2024/01/03 11:55:16;;;;;;;12.43;3.40;;;10.30;99.90;;;;;;5039050;28;20045;-73
2024/01/03 11:57:44;;;;;;;20.03;4.37;;;10.30;99.90;;;;;;5037475;28;20057;-73
2024/01/03 12:00:14;;;;;;;12.33;3.33;;;10.20;99.90;;;;;;5041733;28;20099;-73
2024/01/03 12:02:54;;;;;;;18.77;3.87;;;10.20;99.90;;;;;;5043696;28;20396;-72
2024/01/03 12:05:22;;;;;;;16.70;3.87;;;10.20;99.90;;;;;;5026438;28;20033;-73
2024/01/03 12:07:49;;;;;;;17.63;4.03;;;10.20;99.90;;;;;;5032746;28;20111;-72
2024/01/03 12:10:17;;;;;;;19.37;4.33;;;10.10;99.90;;;;;;5035386;28;20120;-73
2024/01/03 12:12:44;;;;;;;19.13;4.10;;;10.10;99.90;;;;;;5044408;28;20089;-74
2024/01/03 12:15:21;;;;;;;18.30;4.20;;;10.10;99.90;;;;;;5034824;28;20040;-73
2024/01/03 12:17:47;;;;;;;20.37;4.43;;;10.00;99.90;;;;;;5036713;28;20127;-73
2024/01/03 12:20:14;;;;;;;15.50;4.10;;;9.90;99.90;;;;;;5039388;28;20040;-73
2024/01/03 12:22:40;;;;;;;17.73;4.17;;;9.90;99.90;;;;;;5022305;28;20067;-73
2024/01/03 12:25:07;;;;;;;14.97;3.87;;;9.90;99.90;;;;;;5017632;28;20142;-74
2024/01/03 12:27:33;;;;;;;24.83;4.27;;;9.80;99.90;;;;;;5043950;28;20453;-76
2024/01/03 12:30:14;;;;;;;16.47;3.93;;;9.80;99.90;;;;;;5030109;28;20072;-73
2024/01/03 12:32:40;;;;;;;15.87;4.20;;;9.80;99.90;;;;;;5047965;28;20131;-73
2024/01/03 12:35:06;;;;;;;16.77;3.43;;;9.80;99.90;;;;;;5035311;28;20049;-73
2024/01/03 12:37:32;;;;;;;18.77;3.10;;;9.80;99.90;;;;;;5033661;28;20128;-73
2024/01/03 12:39:57;;;;;;;12.00;3.13;;;9.80;99.90;;;;;;5037936;28;20562;-73
2024/01/03 12:42:23;;;;;;;15.63;3.40;;;9.70;99.90;;;;;;5049652;28;20045;-74
2024/01/03 12:44:50;;;;;;;11.87;3.07;;;9.70;99.90;;;;;;5034603;28;20049;-73
2024/01/03 12:47:16;;;;;;;18.73;2.97;;;9.70;99.90;;;;;;5017791;28;20535;-73
2024/01/03 12:49:42;;;;;;;9.37;3.03;;;9.70;99.90;;;;;;5025868;28;20420;-73